Time;durP1;ratioP1;P1;durP2;ratioP2;P2;SDS_P1;SDS_P2;PMS_P1;PMS_P2;Temp;Humidity;BMP_temperature;BMP_pressure;BME280_temperature;BME280_humidity;BME280_pressure;Samples;Min_cycle;Max_cycle;Signal;HPM_P1;HPM_P2
2023/05/25 00:00:10;;;;;;;11.98;5.82;;;;;;;;;;4995789;28;20481;-85
2023/05/25 00:02:36;;;;;;;10.65;6.00;;;;;;;;;;4992401;28;20409;-85
2023/05/25 00:05:04;;;;;;;10.75;6.10;;;;;;;;;;4995846;28;20458;-85
2023/05/25 00:07:30;;;;;;;11.57;5.93;;;;;;;;;;4981499;28;20464;-85
2023/05/25 00:09:57;;;;;;;10.63;5.70;;;;;;;;;;4976275;28;20432;-86
2023/05/25 00:12:25;;;;;;;11.10;6.00;;;;;;;;;;4992139;28;20443;-85
2023/05/25 00:14:51;;;;;;;10.88;5.93;;;;;;;;;;4992535;28;20451;-85
2023/05/25 00:17:17;;;;;;;12.05;6.00;;;;;;;;;;4992530;28;20614;-85
2023/05/25 00:19:44;;;;;;;11.15;6.15;;;;;;;;;;4978854;28;20420;-85
2023/05/25 00:22:10;;;;;;;12.10;6.00;;;;;;;;;;4992107;28;20437;-85
2023/05/25 00:24:37;;;;;;;11.93;5.93;;;;;;;;;;4978939;28;20440;-85
2023/05/25 00:27:03;;;;;;;11.38;6.07;;;;;;;;;;4995632;28;20424;-86
2023/05/25 00:29:29;;;;;;;14.45;6.20;;;;;;;;;;4969022;28;20421;-86
2023/05/25 00:31:58;;;;;;;10.68;5.97;;;;;;;;;;5016286;28;20506;-86
2023/05/25 00:34:24;;;;;;;12.80;5.27;;;;;;;;;;4997644;28;20213;-85
2023/05/25 00:36:50;;;;;;;13.18;5.93;;;;;;;;;;4995459;28;20463;-85
2023/05/25 00:39:20;;;;;;;12.77;6.00;;;;;;;;;;4986506;28;20462;-86
2023/05/25 00:41:47;;;;;;;11.40;5.90;;;;;;;;;;4973820;28;20456;-85
2023/05/25 00:44:14;;;;;;;11.32;6.28;;;;;;;;;;4995155;28;20436;-85
2023/05/25 00:46:55;;;;;;;14.07;6.00;;;;;;;;;;4995136;28;20420;-86
2023/05/25 00:49:21;;;;;;;12.88;6.40;;;;;;;;;;4995386;28;20435;-86
2023/05/25 00:51:48;;;;;;;12.80;5.93;;;;;;;;;;4978530;28;20427;-85
2023/05/25 00:54:34;;;;;;;12.25;6.22;;;;;;;;;;4988928;28;20506;-85
2023/05/25 00:57:04;;;;;;;11.23;6.03;;;;;;;;;;5004333;28;20424;-85
2023/05/25 00:59:42;;;;;;;8.80;5.40;;;;;;;;;;4988184;28;20206;-85
2023/05/25 01:02:16;;;;;;;10.57;5.80;;;;;;;;;;5004460;28;20432;-86
2023/05/25 01:04:51;;;;;;;13.88;6.68;;;;;;;;;;4994729;28;20436;-85
2023/05/25 01:07:17;;;;;;;11.32;6.03;;;;;;;;;;4998723;28;20498;-86
2023/05/25 01:09:44;;;;;;;11.90;6.68;;;;;;;;;;4995648;28;20448;-85
2023/05/25 01:12:14;;;;;;;12.63;6.57;;;;;;;;;;4982516;28;20438;-85
2023/05/25 01:14:41;;;;;;;11.98;6.85;;;;;;;;;;5003486;28;20452;-86
2023/05/25 01:17:10;;;;;;;12.85;6.70;;;;;;;;;;5017296;28;20464;-86
2023/05/25 01:19:39;;;;;;;13.75;6.93;;;;;;;;;;4994292;28;20424;-86
2023/05/25 01:22:14;;;;;;;14.27;6.88;;;;;;;;;;4979104;28;20430;-86
2023/05/25 01:24:48;;;;;;;11.18;6.72;;;;;;;;;;4998876;28;20425;-85
2023/05/25 01:27:32;;;;;;;14.20;7.20;;;;;;;;;;4975133;28;20421;-86
2023/05/25 01:29:59;;;;;;;13.35;6.68;;;;;;;;;;5006349;28;20494;-86
2023/05/25 01:32:26;;;;;;;11.65;6.72;;;;;;;;;;5018795;28;20408;-86
2023/05/25 01:34:54;;;;;;;12.27;6.90;;;;;;;;;;4993915;28;20408;-85
2023/05/25 01:37:23;;;;;;;16.00;6.97;;;;;;;;;;4979123;28;20500;-85
2023/05/25 01:39:49;;;;;;;14.15;6.80;;;;;;;;;;4979333;28;20500;-86
2023/05/25 01:42:17;;;;;;;12.38;7.00;;;;;;;;;;4995151;28;20408;-85
2023/05/25 01:44:44;;;;;;;13.50;6.82;;;;;;;;;;4994129;28;20425;-86
2023/05/25 01:47:15;;;;;;;12.95;6.90;;;;;;;;;;4990263;28;20410;-85
2023/05/25 01:49:53;;;;;;;12.02;6.95;;;;;;;;;;4990312;28;20421;-86
2023/05/25 01:52:25;;;;;;;13.65;7.05;;;;;;;;;;4990808;28;20442;-86
2023/05/25 01:54:57;;;;;;;12.95;7.00;;;;;;;;;;4990650;28;20561;-85
2023/05/25 01:57:24;;;;;;;10.75;6.82;;;;;;;;;;5001036;28;20447;-86
2023/05/25 01:59:51;;;;;;;12.73;6.40;;;;;;;;;;4995258;28;20189;-86
2023/05/25 02:02:17;;;;;;;15.57;7.20;;;;;;;;;;4994315;28;20426;-86
2023/05/25 02:04:44;;;;;;;12.20;7.18;;;;;;;;;;4994135;28;20440;-86
2023/05/25 02:07:10;;;;;;;12.30;7.28;;;;;;;;;;4977915;28;20416;-86
2023/05/25 02:09:36;;;;;;;11.10;7.38;;;;;;;;;;4993797;28;20412;-86
2023/05/25 02:12:02;;;;;;;13.10;7.70;;;;;;;;;;4993986;28;20483;-85
2023/05/25 02:14:28;;;;;;;10.63;6.78;;;;;;;;;;4977936;28;20420;-86
2023/05/25 02:16:56;;;;;;;10.57;6.60;;;;;;;;;;4994140;28;20464;-85
2023/05/25 02:19:22;;;;;;;12.57;6.93;;;;;;;;;;4994259;28;20413;-86
2023/05/25 02:21:48;;;;;;;12.90;7.05;;;;;;;;;;4993497;28;20478;-86
2023/05/25 02:24:14;;;;;;;11.70;6.90;;;;;;;;;;4993430;28;20416;-86
2023/05/25 02:26:43;;;;;;;13.25;7.30;;;;;;;;;;4993326;28;20444;-86
2023/05/25 02:29:10;;;;;;;14.53;7.70;;;;;;;;;;4977092;28;20529;-86
2023/05/25 02:31:36;;;;;;;12.30;7.35;;;;;;;;;;4999651;28;20409;-87
2023/05/25 02:34:05;;;;;;;13.15;7.30;;;;;;;;;;4992827;28;20420;-86
2023/05/25 02:36:31;;;;;;;15.20;7.60;;;;;;;;;;4985845;28;20501;-86
2023/05/25 02:38:57;;;;;;;13.90;7.30;;;;;;;;;;4977447;28;20420;-86
2023/05/25 02:41:25;;;;;;;12.18;7.22;;;;;;;;;;4971699;28;20427;-86
2023/05/25 02:43:51;;;;;;;11.73;6.43;;;;;;;;;;4985880;28;20182;-86
2023/05/25 02:46:17;;;;;;;10.73;6.27;;;;;;;;;;4992658;28;20217;-86
2023/05/25 02:48:43;;;;;;;13.05;6.38;;;;;;;;;;5017034;28;20430;-86
2023/05/25 02:51:09;;;;;;;11.23;7.30;;;;;;;;;;5001470;28;20511;-86
2023/05/25 02:53:38;;;;;;;14.02;7.60;;;;;;;;;;4977055;28;20458;-86
2023/05/25 02:56:05;;;;;;;12.10;6.73;;;;;;;;;;4993869;28;20185;-86
2023/05/25 02:58:31;;;;;;;14.60;7.70;;;;;;;;;;4977546;28;20428;-86
2023/05/25 03:01:00;;;;;;;13.87;6.90;;;;;;;;;;4977756;28;20178;-86
2023/05/25 03:03:26;;;;;;;13.90;8.32;;;;;;;;;;4993035;28;20416;-86
2023/05/25 03:05:53;;;;;;;12.57;7.20;;;;;;;;;;4994241;28;20246;-86
2023/05/25 03:08:21;;;;;;;12.63;7.20;;;;;;;;;;4988306;28;20179;-86
2023/05/25 03:10:47;;;;;;;12.90;7.57;;;;;;;;;;4974046;28;20273;-86
2023/05/25 03:13:13;;;;;;;13.70;7.77;;;;;;;;;;4974302;28;20201;-86
2023/05/25 03:15:39;;;;;;;11.47;7.37;;;;;;;;;;4974119;28;20249;-86
2023/05/25 03:18:08;;;;;;;16.67;7.67;;;;;;;;;;4973960;28;20202;-86
2023/05/25 03:20:34;;;;;;;14.43;6.90;;;;;;;;;;4974266;28;20193;-86
2023/05/25 03:23:00;;;;;;;17.30;7.40;;;;;;;;;;4972703;28;20265;-86
2023/05/25 03:25:28;;;;;;;13.97;7.00;;;;;;;;;;4993469;28;20213;-86
2023/05/25 03:27:55;;;;;;;14.10;8.00;;;;;;;;;;4993405;28;20201;-86
2023/05/25 03:30:24;;;;;;;15.45;9.05;;;;;;;;;;4992899;28;20421;-86
2023/05/25 03:32:52;;;;;;;14.30;7.87;;;;;;;;;;4993239;28;20209;-86
2023/05/25 03:35:18;;;;;;;12.53;7.37;;;;;;;;;;4977175;28;20209;-86
2023/05/25 03:37:44;;;;;;;13.60;7.50;;;;;;;;;;4977184;28;20186;-86
2023/05/25 03:40:13;;;;;;;16.88;8.80;;;;;;;;;;4993487;28;20425;-86
2023/05/25 03:42:40;;;;;;;15.32;9.05;;;;;;;;;;4976988;28;20413;-85
2023/05/25 03:45:07;;;;;;;15.75;8.75;;;;;;;;;;4992406;28;20475;-87
2023/05/25 03:47:36;;;;;;;14.20;8.50;;;;;;;;;;4979598;28;20422;-86
2023/05/25 03:50:03;;;;;;;19.27;9.50;;;;;;;;;;4973107;28;20406;-86
2023/05/25 03:52:29;;;;;;;17.17;9.52;;;;;;;;;;4973371;28;20421;-86
2023/05/25 03:55:03;;;;;;;15.97;7.80;;;;;;;;;;4985139;28;20190;-86
2023/05/25 03:57:29;;;;;;;17.00;7.67;;;;;;;;;;4989316;28;20221;-87
2023/05/25 03:59:57;;;;;;;19.75;9.40;;;;;;;;;;4996560;28;20491;-86
2023/05/25 04:02:23;;;;;;;23.02;9.32;;;;;;;;;;4982612;28;20428;-85
2023/05/25 04:04:50;;;;;;;12.47;7.53;;;;;;;;;;4997690;28;20228;-85
2023/05/25 04:07:19;;;;;;;16.08;8.68;;;;;;;;;;4983887;28;20420;-86
2023/05/25 04:09:45;;;;;;;13.70;8.65;;;;;;;;;;4980343;28;20476;-85
2023/05/25 04:12:11;;;;;;;15.23;7.67;;;;;;;;;;4980646;28;20178;-86
2023/05/25 04:14:37;;;;;;;13.68;7.35;;;;;;;;;;5015611;28;20453;-85
2023/05/25 04:17:06;;;;;;;16.23;8.03;;;;;;;;;;5016708;28;20272;-85
2023/05/25 04:19:32;;;;;;;15.57;7.40;;;;;;;;;;5000547;28;20230;-86
2023/05/25 04:21:58;;;;;;;15.30;7.50;;;;;;;;;;5016339;28;20180;-85
2023/05/25 04:24:24;;;;;;;16.75;9.25;;;;;;;;;;4987318;28;20405;-85
2023/05/25 04:26:55;;;;;;;17.85;9.35;;;;;;;;;;4995471;28;20430;-86
2023/05/25 04:29:21;;;;;;;17.83;9.20;;;;;;;;;;4996374;28;20408;-85
2023/05/25 04:31:48;;;;;;;14.90;8.85;;;;;;;;;;4982352;28;20421;-84
2023/05/25 04:34:14;;;;;;;16.30;9.10;;;;;;;;;;4976359;28;20413;-84
2023/05/25 04:36:42;;;;;;;15.82;8.48;;;;;;;;;;4976161;28;20453;-85
2023/05/25 04:39:08;;;;;;;17.50;9.10;;;;;;;;;;4976056;28;20413;-85
2023/05/25 04:41:36;;;;;;;16.40;7.57;;;;;;;;;;4960990;28;20191;-85
2023/05/25 04:44:03;;;;;;;16.53;8.07;;;;;;;;;;4960798;28;20281;-86
2023/05/25 04:46:30;;;;;;;20.05;9.45;;;;;;;;;;4978307;28;20438;-86
2023/05/25 04:48:59;;;;;;;15.00;7.67;;;;;;;;;;4996551;28;20185;-85
2023/05/25 04:51:25;;;;;;;19.63;8.70;;;;;;;;;;4996151;28;20174;-85
2023/05/25 04:53:51;;;;;;;17.53;8.23;;;;;;;;;;4979916;28;20186;-86
2023/05/25 04:56:17;;;;;;;17.13;8.37;;;;;;;;;;4980263;28;20189;-85
2023/05/25 04:58:43;;;;;;;14.90;8.27;;;;;;;;;;4995963;28;20265;-85
2023/05/25 05:01:09;;;;;;;20.00;8.80;;;;;;;;;;4995520;28;20272;-86
2023/05/25 05:03:35;;;;;;;15.73;8.70;;;;;;;;;;4997945;28;20291;-86
2023/05/25 05:06:01;;;;;;;18.63;9.23;;;;;;;;;;5014620;28;20216;-85
2023/05/25 05:08:27;;;;;;;17.07;8.70;;;;;;;;;;5006844;28;20174;-85
2023/05/25 05:10:53;;;;;;;21.67;8.53;;;;;;;;;;5013167;28;20193;-86
2023/05/25 05:13:19;;;;;;;18.03;9.17;;;;;;;;;;5012235;28;20182;-86
2023/05/25 05:15:45;;;;;;;20.37;9.90;;;;;;;;;;5011913;28;20237;-85
2023/05/25 05:18:12;;;;;;;19.23;9.13;;;;;;;;;;4995095;28;20185;-85
2023/05/25 05:20:38;;;;;;;18.77;9.70;;;;;;;;;;5005683;28;20224;-85
2023/05/25 05:23:05;;;;;;;20.10;10.10;;;;;;;;;;4995565;28;20182;-85
2023/05/25 05:25:31;;;;;;;16.37;9.50;;;;;;;;;;4980337;28;20218;-87
2023/05/25 05:27:57;;;;;;;18.27;10.07;;;;;;;;;;4996239;28;20178;-86
2023/05/25 05:30:25;;;;;;;17.67;10.03;;;;;;;;;;4995630;28;20182;-85
2023/05/25 05:32:51;;;;;;;16.97;9.43;;;;;;;;;;4994969;28;20197;-86
2023/05/25 05:35:17;;;;;;;19.33;9.70;;;;;;;;;;4995450;28;20186;-86
2023/05/25 05:37:44;;;;;;;15.10;9.33;;;;;;;;;;5001000;28;20203;-86
2023/05/25 05:40:11;;;;;;;13.20;8.83;;;;;;;;;;4995678;28;20178;-85
2023/05/25 05:42:37;;;;;;;22.00;9.33;;;;;;;;;;4983572;28;20190;-87
2023/05/25 05:45:03;;;;;;;15.97;9.03;;;;;;;;;;4994933;28;20197;-87
2023/05/25 05:47:29;;;;;;;16.83;9.80;;;;;;;;;;5003855;28;20186;-87
2023/05/25 05:49:55;;;;;;;18.87;9.57;;;;;;;;;;4973570;28;20179;-88
2023/05/25 05:52:22;;;;;;;17.97;9.03;;;;;;;;;;5007515;28;20303;-89
2023/05/25 05:54:48;;;;;;;16.83;9.40;;;;;;;;;;4993516;28;20186;-86
2023/05/25 05:57:14;;;;;;;18.50;9.17;;;;;;;;;;4978897;28;20231;-87
2023/05/25 05:59:42;;;;;;;17.83;9.43;;;;;;;;;;4986777;28;20185;-87
2023/05/25 06:02:08;;;;;;;17.43;9.13;;;;;;;;;;4986659;28;20256;-85
2023/05/25 06:04:37;;;;;;;20.65;10.32;;;;;;;;;;4973549;28;20436;-84
2023/05/25 06:07:05;;;;;;;16.83;8.90;;;;;;;;;;4991503;28;20185;-85
2023/05/25 06:09:31;;;;;;;18.57;8.73;;;;;;;;;;4992644;28;20206;-85
2023/05/25 06:11:57;;;;;;;20.70;9.13;;;;;;;;;;4991338;28;20237;-86
2023/05/25 06:14:23;;;;;;;18.33;10.00;;;;;;;;;;4975891;28;20529;-85
2023/05/25 06:16:52;;;;;;;19.80;9.97;;;;;;;;;;4998655;28;20535;-86
2023/05/25 06:19:18;;;;;;;17.95;9.88;;;;;;;;;;4991543;28;20440;-86
2023/05/25 06:21:44;;;;;;;17.02;8.95;;;;;;;;;;4974967;28;20436;-85
2023/05/25 06:24:13;;;;;;;19.67;9.15;;;;;;;;;;4992153;28;20432;-86
2023/05/25 06:26:39;;;;;;;17.10;9.00;;;;;;;;;;4983646;28;20454;-86
2023/05/25 06:29:05;;;;;;;17.13;9.20;;;;;;;;;;4984701;28;20416;-85
2023/05/25 06:31:31;;;;;;;18.45;8.90;;;;;;;;;;4979717;28;20428;-85
2023/05/25 06:33:59;;;;;;;18.00;8.65;;;;;;;;;;4961103;28;20439;-84
2023/05/25 06:36:25;;;;;;;17.40;8.80;;;;;;;;;;4980888;28;20437;-84
2023/05/25 06:38:51;;;;;;;17.73;8.73;;;;;;;;;;4985728;28;20424;-85
2023/05/25 06:41:18;;;;;;;20.73;9.13;;;;;;;;;;4983294;28;20438;-85
2023/05/25 06:43:44;;;;;;;17.93;9.07;;;;;;;;;;4981416;28;20429;-85
2023/05/25 06:46:16;;;;;;;14.38;8.68;;;;;;;;;;4966003;28;20668;-84
2023/05/25 06:48:45;;;;;;;20.45;8.90;;;;;;;;;;4980389;28;20460;-86
2023/05/25 06:51:11;;;;;;;16.57;7.07;;;;;;;;;;4986161;28;20175;-84
2023/05/25 06:53:38;;;;;;;16.70;7.70;;;;;;;;;;5002460;28;20232;-87
2023/05/25 06:56:12;;;;;;;14.13;7.37;;;;;;;;;;4988733;28;20264;-87
2023/05/25 06:58:38;;;;;;;15.50;6.83;;;;;;;;;;4996074;28;20186;-86
2023/05/25 07:01:06;;;;;;;15.83;7.87;;;;;;;;;;5000703;28;20462;-86
2023/05/25 07:03:37;;;;;;;17.23;8.23;;;;;;;;;;4979297;28;20446;-88
2023/05/25 07:06:06;;;;;;;16.17;8.10;;;;;;;;;;4983950;28;20457;-87
2023/05/25 07:08:32;;;;;;;15.40;8.27;;;;;;;;;;4978767;28;20427;-88
2023/05/25 07:10:58;;;;;;;15.25;7.60;;;;;;;;;;4980609;28;20499;-86
2023/05/25 07:13:29;;;;;;;15.77;7.80;;;;;;;;;;4979048;28;20431;-87
2023/05/25 07:15:55;;;;;;;19.10;7.28;;;;;;;;;;4981882;28;20481;-88
2023/05/25 07:18:21;;;;;;;15.48;7.10;;;;;;;;;;4994788;28;20432;-86
2023/05/25 07:21:09;;;;;;;;;;;;;;;;;;;;;
2023/05/25 07:23:43;;;;;;;17.63;7.18;;;;;;;;;;4980178;28;20425;-87
2023/05/25 07:26:35;;;;;;;17.63;7.30;;;;;;;;;;4980281;28;20451;-86
2023/05/25 07:29:03;;;;;;;15.88;7.10;;;;;;;;;;4979454;28;20428;-86
2023/05/25 07:31:37;;;;;;;17.70;6.70;;;;;;;;;;4984266;28;20489;-87
2023/05/25 07:34:26;;;;;;;15.15;6.32;;;;;;;;;;4979344;28;20425;-87
2023/05/25 07:37:13;;;;;;;13.63;6.00;;;;;;;;;;4972046;28;20433;-87
2023/05/25 07:42:33;;;;;;;13.90;6.25;;;;;;;;;;4988302;28;20512;-87
2023/05/25 07:45:24;;;;;;;14.40;6.13;;;;;;;;;;4991584;28;20569;-88
2023/05/25 07:48:09;;;;;;;14.10;5.55;;;;;;;;;;4991975;28;20423;-87
2023/05/25 07:51:00;;;;;;;14.32;5.65;;;;;;;;;;4991703;28;20445;-87
2023/05/25 07:53:32;;;;;;;14.10;5.90;;;;;;;;;;4990823;28;20475;-86
2023/05/25 07:58:58;;;;;;;14.83;5.73;;;;;;;;;;4993407;28;20186;-86
2023/05/25 08:01:27;;;;;;;9.82;5.30;;;;;;;;;;4979966;28;20438;-87
2023/05/25 08:03:54;;;;;;;11.10;5.60;;;;;;;;;;4989801;28;20428;-87
2023/05/25 08:06:20;;;;;;;12.50;5.68;;;;;;;;;;4991210;28;20444;-87
2023/05/25 08:08:54;;;;;;;15.27;5.43;;;;;;;;;;4992877;28;20419;-88
2023/05/25 08:11:31;;;;;;;14.68;5.38;;;;;;;;;;4987193;28;20451;-86
2023/05/25 08:13:58;;;;;;;12.57;5.43;;;;;;;;;;4993471;28;20450;-87
2023/05/25 08:16:50;;;;;;;13.07;5.20;;;;;;;;;;4989958;28;20444;-87
2023/05/25 08:19:16;;;;;;;11.18;5.13;;;;;;;;;;4993753;28;20424;-86
2023/05/25 08:21:52;;;;;;;12.80;5.10;;;;;;;;;;4990269;28;20448;-87
2023/05/25 08:24:18;;;;;;;14.13;6.10;;;;;;;;;;4994805;28;20444;-86
2023/05/25 08:26:47;;;;;;;11.77;5.50;;;;;;;;;;4992092;28;20496;-86
2023/05/25 08:29:32;;;;;;;14.07;5.50;;;;;;;;;;4983860;28;20420;-87
2023/05/25 08:32:04;;;;;;;14.73;5.78;;;;;;;;;;4990615;28;20428;-87
2023/05/25 08:34:33;;;;;;;15.52;5.75;;;;;;;;;;4991902;28;20409;-86
2023/05/25 08:36:59;;;;;;;15.13;6.00;;;;;;;;;;5004881;28;20416;-87
2023/05/25 08:39:31;;;;;;;12.10;5.93;;;;;;;;;;4992304;28;20476;-86
2023/05/25 08:42:02;;;;;;;16.15;6.80;;;;;;;;;;4995278;28;20439;-86
2023/05/25 08:44:32;;;;;;;13.45;5.80;;;;;;;;;;4979579;28;20511;-87
2023/05/25 08:47:08;;;;;;;13.05;5.65;;;;;;;;;;4995005;28;20466;-87
2023/05/25 08:49:43;;;;;;;12.82;6.10;;;;;;;;;;4999676;28;20408;-87
2023/05/25 08:52:10;;;;;;;13.25;6.47;;;;;;;;;;4995342;28;20412;-86
2023/05/25 08:57:51;;;;;;;14.68;5.85;;;;;;;;;;4996560;28;20388;-87
2023/05/25 09:00:37;;;;;;;13.23;6.03;;;;;;;;;;4995086;28;20421;-87
2023/05/25 09:03:10;;;;;;;12.73;6.05;;;;;;;;;;4981101;28;20425;-86
2023/05/25 09:05:49;;;;;;;;;;;;;;;;;;;;;
2023/05/25 09:11:17;;;;;;;12.02;5.90;;;;;;;;;;4980476;28;20425;-87
2023/05/25 09:13:43;;;;;;;13.83;5.60;;;;;;;;;;4996042;28;20185;-93
2023/05/25 09:16:15;;;;;;;13.25;6.00;;;;;;;;;;4995430;28;20540;-94
2023/05/25 09:18:53;;;;;;;12.35;6.00;;;;;;;;;;4995870;28;20413;-94
2023/05/25 09:21:22;;;;;;;10.93;5.43;;;;;;;;;;4995335;28;20416;-92
2023/05/25 09:23:48;;;;;;;11.52;5.43;;;;;;;;;;4994999;28;20427;-94
2023/05/25 09:26:33;;;;;;;10.40;5.20;;;;;;;;;;4995764;28;20108;-93
2023/05/25 09:28:59;;;;;;;10.68;5.32;;;;;;;;;;4994938;28;20456;-92
2023/05/25 09:31:43;;;;;;;12.05;5.30;;;;;;;;;;4995912;28;20416;-93
2023/05/25 09:34:32;;;;;;;14.10;5.82;;;;;;;;;;4978632;28;20420;-93
2023/05/25 09:37:05;;;;;;;12.43;5.90;;;;;;;;;;4995208;28;20490;-92
2023/05/25 09:39:34;;;;;;;12.30;5.70;;;;;;;;;;4995958;28;20274;-94
2023/05/25 09:42:01;;;;;;;11.25;5.53;;;;;;;;;;4994567;28;20452;-93
2023/05/25 09:44:32;;;;;;;9.63;4.88;;;;;;;;;;4995708;28;20492;-92
2023/05/25 09:47:08;;;;;;;9.93;5.13;;;;;;;;;;4978579;28;20496;-94
2023/05/25 09:58:55;;;;;;;9.55;5.00;;;;;;;;;;4995648;28;20384;-93
2023/05/25 10:01:31;;;;;;;9.55;4.95;;;;;;;;;;5004104;28;20449;-92
2023/05/25 10:04:00;;;;;;;9.27;4.70;;;;;;;;;;4979384;28;20507;-94
2023/05/25 10:06:55;;;;;;;9.57;4.85;;;;;;;;;;4994681;28;20428;-91
2023/05/25 10:09:24;;;;;;;10.20;5.10;;;;;;;;;;4994445;28;20503;-93
2023/05/25 10:15:28;;;;;;;10.38;4.80;;;;;;;;;;4990838;28;20549;-92
2023/05/25 10:17:57;;;;;;;9.88;4.70;;;;;;;;;;4995148;28;20428;-87
2023/05/25 10:20:27;;;;;;;10.77;4.78;;;;;;;;;;5013246;28;20415;-87
2023/05/25 10:23:31;;;;;;;9.65;4.65;;;;;;;;;;4995638;28;20523;-87
2023/05/25 10:26:20;;;;;;;9.20;4.60;;;;;;;;;;4989094;28;20463;-86
2023/05/25 10:29:03;;;;;;;9.05;4.40;;;;;;;;;;4984896;28;20447;-87
2023/05/25 10:31:37;;;;;;;9.00;4.60;;;;;;;;;;4970227;28;20418;-86
2023/05/25 10:34:11;;;;;;;8.98;4.63;;;;;;;;;;5013471;28;20415;-88
2023/05/25 10:36:40;;;;;;;7.53;4.28;;;;;;;;;;5000647;28;20417;-88
2023/05/25 10:39:29;;;;;;;9.48;4.22;;;;;;;;;;4993451;28;20421;-87
2023/05/25 10:45:07;;;;;;;6.80;4.33;;;;;;;;;;4976807;28;20508;-85
2023/05/25 10:47:45;;;;;;;7.82;4.03;;;;;;;;;;4994268;28;20423;-88
2023/05/25 10:50:37;;;;;;;7.00;4.00;;;;;;;;;;4992545;28;20427;-87
2023/05/25 10:53:05;;;;;;;7.97;4.38;;;;;;;;;;4990597;28;20439;-90
2023/05/25 10:55:50;;;;;;;7.97;4.05;;;;;;;;;;4995278;28;20418;-86
2023/05/25 10:58:27;;;;;;;7.25;3.75;;;;;;;;;;5005127;28;20415;-88
2023/05/25 11:01:02;;;;;;;6.75;4.22;;;;;;;;;;4994506;28;20466;-85
2023/05/25 11:03:45;;;;;;;6.88;3.88;;;;;;;;;;4984143;28;20417;-85
2023/05/25 11:06:15;;;;;;;8.95;4.07;;;;;;;;;;4995588;28;21837;-86
2023/05/25 11:08:49;;;;;;;9.40;4.10;;;;;;;;;;4994594;28;20507;-84
2023/05/25 11:11:15;;;;;;;8.68;3.95;;;;;;;;;;4993523;28;20446;-85
2023/05/25 11:13:45;;;;;;;8.18;4.07;;;;;;;;;;4993670;28;20445;-86
2023/05/25 11:16:16;;;;;;;8.50;3.88;;;;;;;;;;4993041;28;20456;-86
2023/05/25 11:18:44;;;;;;;6.03;3.63;;;;;;;;;;4989671;28;20499;-84
2023/05/25 11:21:13;;;;;;;7.55;3.90;;;;;;;;;;5001034;28;20469;-84
2023/05/25 11:24:05;;;;;;;7.43;3.58;;;;;;;;;;4993207;28;20459;-85
2023/05/25 11:26:35;;;;;;;6.05;3.50;;;;;;;;;;4992491;28;20420;-85
2023/05/25 11:29:11;;;;;;;8.10;3.53;;;;;;;;;;4993402;28;20430;-85
2023/05/25 11:31:39;;;;;;;7.13;3.50;;;;;;;;;;4993093;28;20412;-85
2023/05/25 11:34:10;;;;;;;7.28;3.40;;;;;;;;;;4992670;28;20492;-85
2023/05/25 11:36:40;;;;;;;8.40;3.70;;;;;;;;;;4992957;28;20463;-84
2023/05/25 11:39:09;;;;;;;7.95;3.72;;;;;;;;;;4971500;28;20441;-84
2023/05/25 11:41:56;;;;;;;7.68;4.05;;;;;;;;;;4973820;28;20422;-85
2023/05/25 11:44:32;;;;;;;7.65;3.80;;;;;;;;;;5003902;28;20443;-86
2023/05/25 11:47:07;;;;;;;8.68;4.20;;;;;;;;;;5012436;28;20434;-87
2023/05/25 11:49:38;;;;;;;8.65;4.28;;;;;;;;;;5012261;28;20418;-84
2023/05/25 11:52:06;;;;;;;8.73;3.80;;;;;;;;;;5012528;28;20407;-86
2023/05/25 11:54:35;;;;;;;7.00;3.80;;;;;;;;;;5008194;28;20407;-85
2023/05/25 11:57:05;;;;;;;7.88;3.92;;;;;;;;;;4992285;28;20507;-87
2023/05/25 11:59:44;;;;;;;;;;;;;;;;;;;;;
2023/05/25 12:02:23;;;;;;;7.90;4.30;;;;;;;;;;4993209;28;20433;-86
2023/05/25 12:04:57;;;;;;;9.02;4.30;;;;;;;;;;4976798;28;20417;-87
2023/05/25 12:07:27;;;;;;;8.25;4.10;;;;;;;;;;4992387;28;20492;-86
2023/05/25 12:10:05;;;;;;;8.65;4.10;;;;;;;;;;4992326;28;20415;-87
2023/05/25 12:13:01;;;;;;;9.05;4.30;;;;;;;;;;4992712;28;20409;-87
2023/05/25 12:15:36;;;;;;;7.65;4.00;;;;;;;;;;4974599;28;20418;-88
2023/05/25 12:21:31;;;;;;;8.45;4.00;;;;;;;;;;4997496;28;20481;-86
2023/05/25 12:24:02;;;;;;;7.40;4.35;;;;;;;;;;4995930;28;20440;-87
2023/05/25 12:26:29;;;;;;;7.65;4.20;;;;;;;;;;4996125;28;20435;-86
2023/05/25 12:29:30;;;;;;;7.78;4.00;;;;;;;;;;4996463;28;20408;-92
2023/05/25 12:32:05;;;;;;;8.70;4.13;;;;;;;;;;4996412;28;20409;-92
2023/05/25 12:34:31;;;;;;;8.88;4.30;;;;;;;;;;4995831;28;20439;-91
2023/05/25 12:37:16;;;;;;;8.88;4.00;;;;;;;;;;4980033;28;20419;-91
2023/05/25 12:39:55;;;;;;;8.15;4.50;;;;;;;;;;4995744;28;20416;-91
2023/05/25 12:42:33;;;;;;;8.40;4.40;;;;;;;;;;4995930;28;20466;-90
2023/05/25 12:45:00;;;;;;;9.75;4.85;;;;;;;;;;4995972;28;20483;-91
2023/05/25 12:47:28;;;;;;;12.57;5.20;;;;;;;;;;4995825;28;20490;-90
2023/05/25 12:50:10;;;;;;;11.53;4.87;;;;;;;;;;4996398;28;20420;-90
2023/05/25 12:52:36;;;;;;;9.73;4.30;;;;;;;;;;4995579;28;20455;-92
2023/05/25 12:55:40;;;;;;;;;;;;;;;;;;;;;
2023/05/25 12:58:30;;;;;;;9.68;4.43;;;;;;;;;;4996597;28;20396;-93
2023/05/25 13:01:09;;;;;;;9.48;4.78;;;;;;;;;;4996112;28;20420;-90
2023/05/25 13:03:38;;;;;;;11.43;4.70;;;;;;;;;;4995497;28;20412;-91
2023/05/25 13:06:12;;;;;;;9.02;4.32;;;;;;;;;;4995824;28;20444;-91
2023/05/25 13:11:44;;;;;;;8.98;4.70;;;;;;;;;;4996526;28;20396;-91
2023/05/25 13:14:18;;;;;;;11.57;4.40;;;;;;;;;;4995060;28;20484;-91
2023/05/25 13:16:44;;;;;;;8.65;4.20;;;;;;;;;;4995165;28;20528;-92
2023/05/25 13:19:19;;;;;;;10.93;4.55;;;;;;;;;;4995695;28;20428;-93
2023/05/25 13:21:46;;;;;;;8.50;4.57;;;;;;;;;;4994860;28;20503;-92
2023/05/25 13:24:31;;;;;;;10.80;4.45;;;;;;;;;;4995052;28;20432;-91
2023/05/25 13:27:19;;;;;;;10.40;4.70;;;;;;;;;;4994292;28;20433;-92
2023/05/25 13:29:50;;;;;;;8.77;4.25;;;;;;;;;;4995226;28;20457;-93
2023/05/25 13:32:30;;;;;;;12.00;4.40;;;;;;;;;;4995139;28;20409;-91
2023/05/25 13:35:36;;;;;;;10.13;4.38;;;;;;;;;;4979930;28;20467;-88
2023/05/25 13:41:16;;;;;;;10.35;4.90;;;;;;;;;;4995921;28;20381;-88
2023/05/25 13:44:11;;;;;;;12.83;5.10;;;;;;;;;;4994400;28;20401;-87
2023/05/25 13:46:40;;;;;;;12.30;4.70;;;;;;;;;;4973047;28;20461;-86
2023/05/25 13:49:09;;;;;;;15.07;5.63;;;;;;;;;;4976937;28;20422;-86
2023/05/25 13:51:36;;;;;;;14.05;5.03;;;;;;;;;;5003212;28;20416;-86
2023/05/25 13:54:05;;;;;;;11.90;4.80;;;;;;;;;;5010585;28;20491;-87
2023/05/25 13:56:33;;;;;;;14.27;4.70;;;;;;;;;;5011216;28;20420;-87
2023/05/25 13:58:59;;;;;;;11.75;4.75;;;;;;;;;;4994099;28;20411;-86
2023/05/25 14:01:35;;;;;;;13.50;5.13;;;;;;;;;;4994581;28;20463;-86
2023/05/25 14:04:04;;;;;;;13.60;4.93;;;;;;;;;;4994507;28;20416;-86
2023/05/25 14:06:34;;;;;;;12.68;4.72;;;;;;;;;;4979130;28;20441;-87
2023/05/25 14:09:06;;;;;;;12.77;5.10;;;;;;;;;;4994486;28;20472;-87
2023/05/25 14:11:45;;;;;;;12.47;4.83;;;;;;;;;;4967526;28;20460;-88
2023/05/25 14:14:14;;;;;;;14.90;4.88;;;;;;;;;;4990659;28;20418;-87
2023/05/25 14:16:40;;;;;;;12.30;4.82;;;;;;;;;;4986919;28;20433;-84
2023/05/25 14:19:06;;;;;;;13.45;4.72;;;;;;;;;;4977765;28;20413;-87
2023/05/25 14:21:41;;;;;;;15.57;5.43;;;;;;;;;;5010473;28;20409;-88
2023/05/25 14:24:17;;;;;;;13.05;5.00;;;;;;;;;;5010280;28;20439;-87
2023/05/25 14:26:58;;;;;;;13.38;5.35;;;;;;;;;;4974014;28;20458;-88
2023/05/25 14:29:24;;;;;;;15.90;5.20;;;;;;;;;;4987810;28;20425;-87
2023/05/25 14:31:53;;;;;;;14.40;4.90;;;;;;;;;;4993285;28;20413;-87
2023/05/25 14:34:24;;;;;;;15.30;5.70;;;;;;;;;;5002781;28;20403;-87
2023/05/25 14:36:59;;;;;;;16.00;5.50;;;;;;;;;;4990344;28;20420;-88
2023/05/25 14:39:31;;;;;;;16.07;5.67;;;;;;;;;;4990107;28;20449;-87
2023/05/25 14:42:05;;;;;;;13.43;5.50;;;;;;;;;;4990203;28;20501;-87
2023/05/25 14:44:36;;;;;;;14.73;5.38;;;;;;;;;;4960188;28;20422;-87
2023/05/25 14:47:05;;;;;;;16.83;5.70;;;;;;;;;;4976419;28;20520;-88
2023/05/25 14:49:34;;;;;;;17.58;5.85;;;;;;;;;;4993284;28;20469;-89
2023/05/25 14:52:00;;;;;;;14.90;5.75;;;;;;;;;;4992835;28;20504;-87
2023/05/25 14:54:43;;;;;;;14.52;5.97;;;;;;;;;;4993188;28;20448;-88
2023/05/25 14:57:10;;;;;;;16.05;5.75;;;;;;;;;;5026104;28;20420;-86
2023/05/25 15:00:03;;;;;;;18.05;6.00;;;;;;;;;;5022854;28;20425;-88
2023/05/25 15:02:29;;;;;;;14.50;5.90;;;;;;;;;;4972065;28;20450;-88
2023/05/25 15:08:19;;;;;;;;;;;;;;;;;;;;;
2023/05/25 15:10:59;;;;;;;18.35;5.70;;;;;;;;;;4975400;28;20494;-86
2023/05/25 15:13:27;;;;;;;17.63;5.60;;;;;;;;;;4991602;28;20485;-87
2023/05/25 15:15:56;;;;;;;16.52;5.72;;;;;;;;;;5012777;28;20439;-85
2023/05/25 15:18:22;;;;;;;16.40;5.60;;;;;;;;;;5002922;28;20508;-87
2023/05/25 15:20:48;;;;;;;15.15;5.60;;;;;;;;;;4989563;28;20426;-87
2023/05/25 15:23:27;;;;;;;15.93;5.85;;;;;;;;;;4989706;28;20410;-87
2023/05/25 15:26:02;;;;;;;16.38;5.80;;;;;;;;;;4989591;28;20458;-87
2023/05/25 15:28:31;;;;;;;16.00;5.90;;;;;;;;;;4989665;28;20418;-86
2023/05/25 15:30:57;;;;;;;18.60;5.97;;;;;;;;;;4990162;28;20403;-87
2023/05/25 15:33:24;;;;;;;18.48;6.13;;;;;;;;;;4989700;28;20446;-86
2023/05/25 15:35:50;;;;;;;13.93;5.93;;;;;;;;;;4990062;28;20420;-87
2023/05/25 15:38:19;;;;;;;15.85;6.03;;;;;;;;;;4973869;28;20418;-87